sensor_id;sensor_type;location;lat;lon;timestamp;P1;durP1;ratioP1;P2;durP2;ratioP2
27977;SDS011;15314;49.248;6.968;2023-04-06T00:00:36;10.77;;;9.95;;
27977;SDS011;15314;49.248;6.968;2023-04-06T00:01:37;10.98;;;9.85;;
27977;SDS011;15314;49.248;6.968;2023-04-06T00:02:38;11.15;;;10.23;;
27977;SDS011;15314;49.248;6.968;2023-04-06T00:03:39;10.02;;;9.32;;
27977;SDS011;15314;49.248;6.968;2023-04-06T00:04:40;11.10;;;10.20;;
27977;SDS011;15314;49.248;6.968;2023-04-06T00:05:41;11.00;;;9.95;;
27977;SDS011;15314;49.248;6.968;2023-04-06T00:06:41;11.05;;;10.00;;
27977;SDS011;15314;49.248;6.968;2023-04-06T00:07:43;10.40;;;9.60;;
27977;SDS011;15314;49.248;6.968;2023-04-06T00:08:44;10.23;;;9.43;;
27977;SDS011;15314;49.248;6.968;2023-04-06T00:09:44;9.85;;;9.05;;
27977;SDS011;15314;49.248;6.968;2023-04-06T00:10:45;9.77;;;8.93;;
27977;SDS011;15314;49.248;6.968;2023-04-06T00:11:46;10.98;;;9.88;;
27977;SDS011;15314;49.248;6.968;2023-04-06T00:12:46;10.88;;;9.88;;
27977;SDS011;15314;49.248;6.968;2023-04-06T00:13:47;10.35;;;9.25;;
27977;SDS011;15314;49.248;6.968;2023-04-06T00:14:48;10.57;;;9.57;;
27977;SDS011;15314;49.248;6.968;2023-04-06T00:15:50;10.25;;;9.23;;
27977;SDS011;15314;49.248;6.968;2023-04-06T00:16:50;10.35;;;9.50;;
27977;SDS011;15314;49.248;6.968;2023-04-06T00:17:51;10.43;;;9.52;;
27977;SDS011;15314;49.248;6.968;2023-04-06T00:18:52;11.18;;;10.07;;
27977;SDS011;15314;49.248;6.968;2023-04-06T00:19:53;11.13;;;10.40;;
27977;SDS011;15314;49.248;6.968;2023-04-06T00:20:53;9.75;;;8.95;;
27977;SDS011;15314;49.248;6.968;2023-04-06T00:21:54;10.57;;;9.55;;
27977;SDS011;15314;49.248;6.968;2023-04-06T00:22:55;10.57;;;9.52;;
27977;SDS011;15314;49.248;6.968;2023-04-06T00:23:56;11.50;;;10.63;;
27977;SDS011;15314;49.248;6.968;2023-04-06T00:24:56;9.82;;;9.13;;
27977;SDS011;15314;49.248;6.968;2023-04-06T00:25:57;10.73;;;9.88;;
27977;SDS011;15314;49.248;6.968;2023-04-06T00:26:58;10.68;;;9.77;;
27977;SDS011;15314;49.248;6.968;2023-04-06T00:27:58;10.27;;;9.48;;
27977;SDS011;15314;49.248;6.968;2023-04-06T00:28:59;10.38;;;9.68;;
27977;SDS011;15314;49.248;6.968;2023-04-06T00:30:00;10.23;;;9.38;;
27977;SDS011;15314;49.248;6.968;2023-04-06T00:31:01;11.10;;;10.15;;
27977;SDS011;15314;49.248;6.968;2023-04-06T00:32:02;11.52;;;10.63;;
27977;SDS011;15314;49.248;6.968;2023-04-06T00:33:02;11.20;;;10.20;;
27977;SDS011;15314;49.248;6.968;2023-04-06T00:34:03;10.95;;;9.95;;
27977;SDS011;15314;49.248;6.968;2023-04-06T00:35:04;10.32;;;9.43;;
27977;SDS011;15314;49.248;6.968;2023-04-06T00:36:06;10.68;;;9.68;;
27977;SDS011;15314;49.248;6.968;2023-04-06T00:37:06;10.35;;;9.55;;
27977;SDS011;15314;49.248;6.968;2023-04-06T00:38:07;11.45;;;10.30;;
27977;SDS011;15314;49.248;6.968;2023-04-06T00:39:08;10.13;;;9.43;;
27977;SDS011;15314;49.248;6.968;2023-04-06T00:40:09;12.90;;;9.93;;
27977;SDS011;15314;49.248;6.968;2023-04-06T00:41:10;10.65;;;9.68;;
27977;SDS011;15314;49.248;6.968;2023-04-06T00:42:12;10.57;;;9.88;;
27977;SDS011;15314;49.248;6.968;2023-04-06T00:43:13;10.95;;;10.05;;
27977;SDS011;15314;49.248;6.968;2023-04-06T00:44:14;11.60;;;10.10;;
27977;SDS011;15314;49.248;6.968;2023-04-06T00:45:15;11.95;;;10.20;;
27977;SDS011;15314;49.248;6.968;2023-04-06T00:46:16;11.43;;;10.43;;
27977;SDS011;15314;49.248;6.968;2023-04-06T00:47:16;11.32;;;10.23;;
27977;SDS011;15314;49.248;6.968;2023-04-06T00:48:17;10.48;;;9.68;;
27977;SDS011;15314;49.248;6.968;2023-04-06T00:49:18;10.40;;;9.50;;
27977;SDS011;15314;49.248;6.968;2023-04-06T00:50:19;11.80;;;10.65;;
27977;SDS011;15314;49.248;6.968;2023-04-06T00:51:19;11.05;;;10.15;;
27977;SDS011;15314;49.248;6.968;2023-04-06T00:52:20;11.27;;;10.38;;
27977;SDS011;15314;49.248;6.968;2023-04-06T00:53:21;10.52;;;9.50;;
27977;SDS011;15314;49.248;6.968;2023-04-06T00:54:22;11.93;;;10.88;;
27977;SDS011;15314;49.248;6.968;2023-04-06T00:55:22;12.10;;;11.00;;
27977;SDS011;15314;49.248;6.968;2023-04-06T00:56:23;11.02;;;10.13;;
27977;SDS011;15314;49.248;6.968;2023-04-06T00:57:26;11.40;;;10.40;;
27977;SDS011;15314;49.248;6.968;2023-04-06T00:58:26;11.30;;;10.18;;
27977;SDS011;15314;49.248;6.968;2023-04-06T00:59:27;11.73;;;10.70;;
27977;SDS011;15314;49.248;6.968;2023-04-06T01:00:29;11.48;;;9.20;;
27977;SDS011;15314;49.248;6.968;2023-04-06T01:01:30;11.13;;;9.93;;
27977;SDS011;15314;49.248;6.968;2023-04-06T01:02:32;11.13;;;10.13;;
27977;SDS011;15314;49.248;6.968;2023-04-06T01:03:33;11.50;;;10.38;;
27977;SDS011;15314;49.248;6.968;2023-04-06T01:04:34;12.27;;;11.18;;
27977;SDS011;15314;49.248;6.968;2023-04-06T01:05:35;11.88;;;10.77;;
27977;SDS011;15314;49.248;6.968;2023-04-06T01:06:40;11.30;;;10.30;;
27977;SDS011;15314;49.248;6.968;2023-04-06T01:07:41;11.93;;;10.93;;
27977;SDS011;15314;49.248;6.968;2023-04-06T01:08:41;10.93;;;10.00;;
27977;SDS011;15314;49.248;6.968;2023-04-06T01:09:42;11.85;;;10.75;;
27977;SDS011;15314;49.248;6.968;2023-04-06T01:10:43;11.77;;;10.65;;
27977;SDS011;15314;49.248;6.968;2023-04-06T01:11:44;11.88;;;10.82;;
27977;SDS011;15314;49.248;6.968;2023-04-06T01:12:45;12.75;;;11.48;;
27977;SDS011;15314;49.248;6.968;2023-04-06T01:13:45;12.15;;;10.93;;
27977;SDS011;15314;49.248;6.968;2023-04-06T01:14:46;11.57;;;10.32;;
27977;SDS011;15314;49.248;6.968;2023-04-06T01:15:47;12.50;;;11.30;;
27977;SDS011;15314;49.248;6.968;2023-04-06T01:16:48;11.30;;;10.38;;
27977;SDS011;15314;49.248;6.968;2023-04-06T01:17:48;12.40;;;11.40;;
27977;SDS011;15314;49.248;6.968;2023-04-06T01:18:49;12.20;;;10.90;;
27977;SDS011;15314;49.248;6.968;2023-04-06T01:19:50;11.90;;;10.90;;
27977;SDS011;15314;49.248;6.968;2023-04-06T01:20:53;12.43;;;11.20;;
27977;SDS011;15314;49.248;6.968;2023-04-06T01:21:54;12.02;;;10.93;;
27977;SDS011;15314;49.248;6.968;2023-04-06T01:22:55;12.35;;;11.25;;
27977;SDS011;15314;49.248;6.968;2023-04-06T01:23:56;12.85;;;11.65;;
27977;SDS011;15314;49.248;6.968;2023-04-06T01:24:56;12.50;;;11.48;;
27977;SDS011;15314;49.248;6.968;2023-04-06T01:25:57;11.80;;;10.90;;
27977;SDS011;15314;49.248;6.968;2023-04-06T01:26:58;12.40;;;11.10;;
27977;SDS011;15314;49.248;6.968;2023-04-06T01:28:00;12.95;;;11.50;;
27977;SDS011;15314;49.248;6.968;2023-04-06T01:29:02;12.68;;;11.52;;
27977;SDS011;15314;49.248;6.968;2023-04-06T01:30:03;11.90;;;10.80;;
27977;SDS011;15314;49.248;6.968;2023-04-06T01:31:06;12.40;;;11.45;;
27977;SDS011;15314;49.248;6.968;2023-04-06T01:32:07;11.60;;;10.65;;
27977;SDS011;15314;49.248;6.968;2023-04-06T01:33:08;12.27;;;11.18;;
27977;SDS011;15314;49.248;6.968;2023-04-06T01:34:09;11.65;;;10.75;;
27977;SDS011;15314;49.248;6.968;2023-04-06T01:35:10;11.43;;;10.52;;
27977;SDS011;15314;49.248;6.968;2023-04-06T01:36:11;10.98;;;9.95;;
27977;SDS011;15314;49.248;6.968;2023-04-06T01:37:11;11.63;;;10.32;;
27977;SDS011;15314;49.248;6.968;2023-04-06T01:38:12;12.35;;;11.35;;
27977;SDS011;15314;49.248;6.968;2023-04-06T01:39:13;11.32;;;10.27;;
27977;SDS011;15314;49.248;6.968;2023-04-06T01:40:13;11.30;;;10.40;;
27977;SDS011;15314;49.248;6.968;2023-04-06T01:41:14;11.95;;;10.95;;
27977;SDS011;15314;49.248;6.968;2023-04-06T01:42:15;13.07;;;11.93;;
27977;SDS011;15314;49.248;6.968;2023-04-06T01:43:16;12.07;;;10.80;;
27977;SDS011;15314;49.248;6.968;2023-04-06T01:44:17;12.13;;;11.05;;
27977;SDS011;15314;49.248;6.968;2023-04-06T01:45:19;12.25;;;11.05;;
27977;SDS011;15314;49.248;6.968;2023-04-06T01:46:20;12.57;;;11.38;;
27977;SDS011;15314;49.248;6.968;2023-04-06T01:47:20;12.32;;;11.18;;
27977;SDS011;15314;49.248;6.968;2023-04-06T01:48:21;11.88;;;10.88;;
27977;SDS011;15314;49.248;6.968;2023-04-06T01:49:22;11.38;;;10.38;;
27977;SDS011;15314;49.248;6.968;2023-04-06T01:50:23;12.85;;;11.55;;
27977;SDS011;15314;49.248;6.968;2023-04-06T01:51:23;11.73;;;10.77;;
27977;SDS011;15314;49.248;6.968;2023-04-06T01:52:25;11.43;;;10.23;;
27977;SDS011;15314;49.248;6.968;2023-04-06T01:53:26;12.82;;;11.73;;
27977;SDS011;15314;49.248;6.968;2023-04-06T01:54:27;12.40;;;11.20;;
27977;SDS011;15314;49.248;6.968;2023-04-06T01:55:27;11.88;;;10.88;;
27977;SDS011;15314;49.248;6.968;2023-04-06T01:56:28;12.48;;;11.27;;
27977;SDS011;15314;49.248;6.968;2023-04-06T01:57:29;14.57;;;11.98;;
27977;SDS011;15314;49.248;6.968;2023-04-06T01:58:29;12.88;;;11.60;;
27977;SDS011;15314;49.248;6.968;2023-04-06T01:59:30;11.77;;;10.77;;
27977;SDS011;15314;49.248;6.968;2023-04-06T02:00:31;11.60;;;10.52;;
27977;SDS011;15314;49.248;6.968;2023-04-06T02:01:31;13.82;;;10.85;;
27977;SDS011;15314;49.248;6.968;2023-04-06T02:02:32;12.60;;;11.27;;
27977;SDS011;15314;49.248;6.968;2023-04-06T02:03:33;11.48;;;10.43;;
27977;SDS011;15314;49.248;6.968;2023-04-06T02:04:33;12.50;;;11.40;;
27977;SDS011;15314;49.248;6.968;2023-04-06T02:05:34;12.02;;;11.02;;
27977;SDS011;15314;49.248;6.968;2023-04-06T02:06:37;13.10;;;11.88;;
27977;SDS011;15314;49.248;6.968;2023-04-06T02:07:38;12.25;;;11.25;;
27977;SDS011;15314;49.248;6.968;2023-04-06T02:08:39;12.73;;;11.68;;
27977;SDS011;15314;49.248;6.968;2023-04-06T02:09:40;12.10;;;10.93;;
27977;SDS011;15314;49.248;6.968;2023-04-06T02:10:40;13.15;;;11.93;;
27977;SDS011;15314;49.248;6.968;2023-04-06T02:11:41;12.90;;;11.40;;
27977;SDS011;15314;49.248;6.968;2023-04-06T02:12:42;12.35;;;11.35;;
27977;SDS011;15314;49.248;6.968;2023-04-06T02:13:42;13.95;;;11.88;;
27977;SDS011;15314;49.248;6.968;2023-04-06T02:14:43;13.18;;;11.88;;
27977;SDS011;15314;49.248;6.968;2023-04-06T02:15:44;13.05;;;11.88;;
27977;SDS011;15314;49.248;6.968;2023-04-06T02:16:44;12.10;;;10.98;;
27977;SDS011;15314;49.248;6.968;2023-04-06T02:17:45;14.35;;;12.80;;
27977;SDS011;15314;49.248;6.968;2023-04-06T02:18:46;12.40;;;11.30;;
27977;SDS011;15314;49.248;6.968;2023-04-06T02:19:46;14.73;;;12.40;;
27977;SDS011;15314;49.248;6.968;2023-04-06T02:20:47;12.40;;;11.15;;
27977;SDS011;15314;49.248;6.968;2023-04-06T02:21:48;12.35;;;11.05;;
27977;SDS011;15314;49.248;6.968;2023-04-06T02:22:48;12.82;;;11.50;;
27977;SDS011;15314;49.248;6.968;2023-04-06T02:23:49;12.70;;;11.50;;
27977;SDS011;15314;49.248;6.968;2023-04-06T02:24:50;13.48;;;12.27;;
27977;SDS011;15314;49.248;6.968;2023-04-06T02:25:51;12.48;;;11.38;;
27977;SDS011;15314;49.248;6.968;2023-04-06T02:26:52;13.32;;;12.13;;
27977;SDS011;15314;49.248;6.968;2023-04-06T02:27:52;13.38;;;11.77;;
27977;SDS011;15314;49.248;6.968;2023-04-06T02:28:53;14.90;;;12.00;;
27977;SDS011;15314;49.248;6.968;2023-04-06T02:29:54;12.57;;;11.27;;
27977;SDS011;15314;49.248;6.968;2023-04-06T02:30:54;13.07;;;11.85;;
27977;SDS011;15314;49.248;6.968;2023-04-06T02:31:55;12.35;;;11.25;;
27977;SDS011;15314;49.248;6.968;2023-04-06T02:32:56;14.23;;;12.73;;
27977;SDS011;15314;49.248;6.968;2023-04-06T02:33:56;13.25;;;11.25;;
27977;SDS011;15314;49.248;6.968;2023-04-06T02:34:57;12.70;;;11.60;;
27977;SDS011;15314;49.248;6.968;2023-04-06T02:35:58;13.52;;;12.25;;
27977;SDS011;15314;49.248;6.968;2023-04-06T02:36:58;12.45;;;11.35;;
27977;SDS011;15314;49.248;6.968;2023-04-06T02:37:59;12.48;;;11.38;;
27977;SDS011;15314;49.248;6.968;2023-04-06T02:39:00;12.55;;;11.55;;
27977;SDS011;15314;49.248;6.968;2023-04-06T02:40:00;13.13;;;11.80;;
27977;SDS011;15314;49.248;6.968;2023-04-06T02:41:01;12.48;;;11.23;;
27977;SDS011;15314;49.248;6.968;2023-04-06T02:42:02;13.82;;;12.63;;
27977;SDS011;15314;49.248;6.968;2023-04-06T02:43:02;13.75;;;12.48;;
27977;SDS011;15314;49.248;6.968;2023-04-06T02:44:03;14.55;;;13.15;;
27977;SDS011;15314;49.248;6.968;2023-04-06T02:45:06;14.73;;;13.30;;
27977;SDS011;15314;49.248;6.968;2023-04-06T02:46:07;14.52;;;13.02;;
27977;SDS011;15314;49.248;6.968;2023-04-06T02:47:07;13.13;;;10.52;;
27977;SDS011;15314;49.248;6.968;2023-04-06T02:48:08;12.40;;;11.30;;
27977;SDS011;15314;49.248;6.968;2023-04-06T02:49:09;13.82;;;12.55;;
27977;SDS011;15314;49.248;6.968;2023-04-06T02:50:10;13.50;;;12.30;;
27977;SDS011;15314;49.248;6.968;2023-04-06T02:51:10;14.20;;;13.00;;
27977;SDS011;15314;49.248;6.968;2023-04-06T02:52:11;12.90;;;11.70;;
27977;SDS011;15314;49.248;6.968;2023-04-06T02:53:12;13.18;;;12.10;;
27977;SDS011;15314;49.248;6.968;2023-04-06T02:54:12;12.75;;;11.57;;
27977;SDS011;15314;49.248;6.968;2023-04-06T02:55:13;13.90;;;12.77;;
27977;SDS011;15314;49.248;6.968;2023-04-06T02:56:14;12.80;;;11.55;;
27977;SDS011;15314;49.248;6.968;2023-04-06T02:57:14;13.05;;;11.95;;
27977;SDS011;15314;49.248;6.968;2023-04-06T02:58:15;13.40;;;12.13;;
27977;SDS011;15314;49.248;6.968;2023-04-06T02:59:15;13.18;;;12.15;;
27977;SDS011;15314;49.248;6.968;2023-04-06T03:00:16;13.82;;;12.10;;
27977;SDS011;15314;49.248;6.968;2023-04-06T03:01:17;13.02;;;12.02;;
27977;SDS011;15314;49.248;6.968;2023-04-06T03:02:18;12.75;;;11.65;;
27977;SDS011;15314;49.248;6.968;2023-04-06T03:03:19;12.50;;;11.30;;
27977;SDS011;15314;49.248;6.968;2023-04-06T03:04:20;12.80;;;11.50;;
27977;SDS011;15314;49.248;6.968;2023-04-06T03:05:22;12.60;;;11.50;;
27977;SDS011;15314;49.248;6.968;2023-04-06T03:06:23;12.82;;;11.73;;
27977;SDS011;15314;49.248;6.968;2023-04-06T03:07:24;13.35;;;11.25;;
27977;SDS011;15314;49.248;6.968;2023-04-06T03:08:25;13.48;;;12.18;;
27977;SDS011;15314;49.248;6.968;2023-04-06T03:09:26;13.25;;;11.55;;
27977;SDS011;15314;49.248;6.968;2023-04-06T03:10:27;12.40;;;11.23;;
27977;SDS011;15314;49.248;6.968;2023-04-06T03:11:27;12.48;;;11.38;;
27977;SDS011;15314;49.248;6.968;2023-04-06T03:12:28;13.70;;;12.40;;
27977;SDS011;15314;49.248;6.968;2023-04-06T03:13:29;12.57;;;11.57;;
27977;SDS011;15314;49.248;6.968;2023-04-06T03:14:29;13.43;;;12.00;;
27977;SDS011;15314;49.248;6.968;2023-04-06T03:15:30;12.98;;;11.98;;
27977;SDS011;15314;49.248;6.968;2023-04-06T03:16:31;13.07;;;11.93;;
27977;SDS011;15314;49.248;6.968;2023-04-06T03:17:31;14.13;;;12.60;;
27977;SDS011;15314;49.248;6.968;2023-04-06T03:18:32;13.68;;;11.60;;
27977;SDS011;15314;49.248;6.968;2023-04-06T03:19:33;14.13;;;12.82;;
27977;SDS011;15314;49.248;6.968;2023-04-06T03:20:33;14.27;;;12.88;;
27977;SDS011;15314;49.248;6.968;2023-04-06T03:21:34;15.98;;;11.95;;
27977;SDS011;15314;49.248;6.968;2023-04-06T03:22:35;13.25;;;11.90;;
27977;SDS011;15314;49.248;6.968;2023-04-06T03:23:36;14.13;;;12.63;;
27977;SDS011;15314;49.248;6.968;2023-04-06T03:24:36;13.43;;;12.25;;
27977;SDS011;15314;49.248;6.968;2023-04-06T03:25:37;14.10;;;12.70;;
27977;SDS011;15314;49.248;6.968;2023-04-06T03:26:39;13.40;;;12.27;;
27977;SDS011;15314;49.248;6.968;2023-04-06T03:27:40;12.85;;;11.65;;
27977;SDS011;15314;49.248;6.968;2023-04-06T03:28:41;13.70;;;12.60;;
27977;SDS011;15314;49.248;6.968;2023-04-06T03:29:41;13.18;;;11.88;;
27977;SDS011;15314;49.248;6.968;2023-04-06T03:30:42;13.02;;;11.90;;
27977;SDS011;15314;49.248;6.968;2023-04-06T03:31:43;13.75;;;12.55;;
27977;SDS011;15314;49.248;6.968;2023-04-06T03:32:44;13.77;;;12.50;;
27977;SDS011;15314;49.248;6.968;2023-04-06T03:33:45;15.07;;;13.63;;
27977;SDS011;15314;49.248;6.968;2023-04-06T03:34:45;12.38;;;11.05;;
27977;SDS011;15314;49.248;6.968;2023-04-06T03:35:46;13.55;;;12.18;;
27977;SDS011;15314;49.248;6.968;2023-04-06T03:36:47;13.55;;;12.23;;
27977;SDS011;15314;49.248;6.968;2023-04-06T03:37:47;13.68;;;12.35;;
27977;SDS011;15314;49.248;6.968;2023-04-06T03:38:48;15.25;;;12.45;;
27977;SDS011;15314;49.248;6.968;2023-04-06T03:39:49;13.43;;;12.23;;
27977;SDS011;15314;49.248;6.968;2023-04-06T03:40:50;13.38;;;11.88;;
27977;SDS011;15314;49.248;6.968;2023-04-06T03:41:51;13.88;;;12.48;;
27977;SDS011;15314;49.248;6.968;2023-04-06T03:42:51;13.48;;;12.25;;
27977;SDS011;15314;49.248;6.968;2023-04-06T03:43:52;13.60;;;12.30;;
27977;SDS011;15314;49.248;6.968;2023-04-06T03:44:53;14.45;;;11.68;;
27977;SDS011;15314;49.248;6.968;2023-04-06T03:45:54;13.27;;;12.00;;
27977;SDS011;15314;49.248;6.968;2023-04-06T03:46:54;12.95;;;11.75;;
27977;SDS011;15314;49.248;6.968;2023-04-06T03:47:55;13.30;;;12.10;;
27977;SDS011;15314;49.248;6.968;2023-04-06T03:48:56;13.98;;;12.57;;
27977;SDS011;15314;49.248;6.968;2023-04-06T03:49:56;14.50;;;11.75;;
27977;SDS011;15314;49.248;6.968;2023-04-06T03:50:57;14.95;;;13.50;;
27977;SDS011;15314;49.248;6.968;2023-04-06T03:51:58;12.45;;;11.35;;
27977;SDS011;15314;49.248;6.968;2023-04-06T03:52:58;14.77;;;13.38;;
27977;SDS011;15314;49.248;6.968;2023-04-06T03:53:59;11.68;;;10.68;;
27977;SDS011;15314;49.248;6.968;2023-04-06T03:55:00;14.75;;;13.35;;
27977;SDS011;15314;49.248;6.968;2023-04-06T03:56:00;14.93;;;13.60;;
27977;SDS011;15314;49.248;6.968;2023-04-06T03:57:01;14.35;;;13.05;;
27977;SDS011;15314;49.248;6.968;2023-04-06T03:58:02;15.77;;;13.40;;
27977;SDS011;15314;49.248;6.968;2023-04-06T03:59:02;14.85;;;13.45;;
27977;SDS011;15314;49.248;6.968;2023-04-06T04:00:03;13.00;;;11.85;;
27977;SDS011;15314;49.248;6.968;2023-04-06T04:01:04;14.27;;;12.85;;
27977;SDS011;15314;49.248;6.968;2023-04-06T04:02:06;13.15;;;11.85;;
27977;SDS011;15314;49.248;6.968;2023-04-06T04:03:07;13.70;;;11.93;;
27977;SDS011;15314;49.248;6.968;2023-04-06T04:04:07;15.50;;;13.93;;
27977;SDS011;15314;49.248;6.968;2023-04-06T04:05:10;15.00;;;13.40;;
27977;SDS011;15314;49.248;6.968;2023-04-06T04:06:10;14.88;;;13.57;;
27977;SDS011;15314;49.248;6.968;2023-04-06T04:07:11;13.98;;;12.63;;
27977;SDS011;15314;49.248;6.968;2023-04-06T04:08:11;14.98;;;13.57;;
27977;SDS011;15314;49.248;6.968;2023-04-06T04:09:12;13.15;;;11.85;;
27977;SDS011;15314;49.248;6.968;2023-04-06T04:10:13;14.80;;;13.40;;
27977;SDS011;15314;49.248;6.968;2023-04-06T04:11:14;14.20;;;12.90;;
27977;SDS011;15314;49.248;6.968;2023-04-06T04:12:15;16.30;;;14.32;;
27977;SDS011;15314;49.248;6.968;2023-04-06T04:13:16;13.80;;;12.45;;
27977;SDS011;15314;49.248;6.968;2023-04-06T04:14:17;14.55;;;13.07;;
27977;SDS011;15314;49.248;6.968;2023-04-06T04:15:18;14.10;;;12.88;;
27977;SDS011;15314;49.248;6.968;2023-04-06T04:16:18;13.43;;;12.23;;
27977;SDS011;15314;49.248;6.968;2023-04-06T04:17:19;14.43;;;13.02;;
27977;SDS011;15314;49.248;6.968;2023-04-06T04:18:21;13.70;;;12.30;;
27977;SDS011;15314;49.248;6.968;2023-04-06T04:19:22;14.80;;;13.35;;
27977;SDS011;15314;49.248;6.968;2023-04-06T04:20:22;13.50;;;12.23;;
27977;SDS011;15314;49.248;6.968;2023-04-06T04:21:23;13.68;;;12.27;;
27977;SDS011;15314;49.248;6.968;2023-04-06T04:22:25;13.75;;;12.43;;
27977;SDS011;15314;49.248;6.968;2023-04-06T04:23:27;13.98;;;11.98;;
27977;SDS011;15314;49.248;6.968;2023-04-06T04:24:28;15.98;;;12.82;;
27977;SDS011;15314;49.248;6.968;2023-04-06T04:25:29;16.35;;;12.63;;
27977;SDS011;15314;49.248;6.968;2023-04-06T04:26:30;14.95;;;13.38;;
27977;SDS011;15314;49.248;6.968;2023-04-06T04:27:30;14.32;;;12.82;;
27977;SDS011;15314;49.248;6.968;2023-04-06T04:28:31;14.38;;;13.18;;
27977;SDS011;15314;49.248;6.968;2023-04-06T04:29:31;13.43;;;12.18;;
27977;SDS011;15314;49.248;6.968;2023-04-06T04:30:32;12.65;;;11.52;;
27977;SDS011;15314;49.248;6.968;2023-04-06T04:31:33;17.67;;;12.90;;
27977;SDS011;15314;49.248;6.968;2023-04-06T04:32:34;13.18;;;11.88;;
27977;SDS011;15314;49.248;6.968;2023-04-06T04:33:34;13.68;;;12.23;;
27977;SDS011;15314;49.248;6.968;2023-04-06T04:34:35;13.52;;;12.27;;
27977;SDS011;15314;49.248;6.968;2023-04-06T04:35:36;13.82;;;12.63;;
27977;SDS011;15314;49.248;6.968;2023-04-06T04:36:36;15.05;;;13.40;;
27977;SDS011;15314;49.248;6.968;2023-04-06T04:37:37;13.75;;;12.23;;
27977;SDS011;15314;49.248;6.968;2023-04-06T04:38:38;14.10;;;12.70;;
27977;SDS011;15314;49.248;6.968;2023-04-06T04:39:38;14.10;;;12.43;;
27977;SDS011;15314;49.248;6.968;2023-04-06T04:40:39;14.15;;;12.80;;
27977;SDS011;15314;49.248;6.968;2023-04-06T04:41:40;15.00;;;13.60;;
27977;SDS011;15314;49.248;6.968;2023-04-06T04:42:40;13.63;;;12.13;;
27977;SDS011;15314;49.248;6.968;2023-04-06T04:43:41;15.02;;;13.55;;
27977;SDS011;15314;49.248;6.968;2023-04-06T04:44:42;15.00;;;13.38;;
27977;SDS011;15314;49.248;6.968;2023-04-06T04:45:42;15.27;;;13.82;;
27977;SDS011;15314;49.248;6.968;2023-04-06T04:46:43;15.88;;;14.27;;
27977;SDS011;15314;49.248;6.968;2023-04-06T04:47:44;15.23;;;13.73;;
27977;SDS011;15314;49.248;6.968;2023-04-06T04:48:44;15.50;;;14.00;;
27977;SDS011;15314;49.248;6.968;2023-04-06T04:49:45;14.32;;;13.07;;
27977;SDS011;15314;49.248;6.968;2023-04-06T04:50:46;15.95;;;14.20;;
27977;SDS011;15314;49.248;6.968;2023-04-06T04:51:46;16.25;;;14.68;;
27977;SDS011;15314;49.248;6.968;2023-04-06T04:52:47;15.43;;;13.82;;
27977;SDS011;15314;49.248;6.968;2023-04-06T04:53:48;17.80;;;14.70;;
27977;SDS011;15314;49.248;6.968;2023-04-06T04:54:48;16.75;;;15.05;;
27977;SDS011;15314;49.248;6.968;2023-04-06T04:55:49;16.65;;;14.88;;
27977;SDS011;15314;49.248;6.968;2023-04-06T04:56:50;15.68;;;14.07;;
27977;SDS011;15314;49.248;6.968;2023-04-06T04:57:51;16.92;;;15.30;;
27977;SDS011;15314;49.248;6.968;2023-04-06T04:58:52;15.60;;;14.10;;
27977;SDS011;15314;49.248;6.968;2023-04-06T04:59:52;16.60;;;14.95;;
27977;SDS011;15314;49.248;6.968;2023-04-06T05:00:53;19.38;;;16.30;;
27977;SDS011;15314;49.248;6.968;2023-04-06T05:01:54;27.25;;;16.95;;
27977;SDS011;15314;49.248;6.968;2023-04-06T05:02:55;23.10;;;16.13;;
27977;SDS011;15314;49.248;6.968;2023-04-06T05:03:56;19.92;;;15.52;;
27977;SDS011;15314;49.248;6.968;2023-04-06T05:04:56;17.40;;;14.15;;
27977;SDS011;15314;49.248;6.968;2023-04-06T05:05:57;17.15;;;14.90;;
27977;SDS011;15314;49.248;6.968;2023-04-06T05:07:07;17.63;;;15.45;;
27977;SDS011;15314;49.248;6.968;2023-04-06T05:08:08;20.27;;;15.38;;
27977;SDS011;15314;49.248;6.968;2023-04-06T05:09:09;17.42;;;15.73;;
27977;SDS011;15314;49.248;6.968;2023-04-06T05:10:10;15.35;;;13.90;;
27977;SDS011;15314;49.248;6.968;2023-04-06T05:11:11;15.43;;;14.00;;
27977;SDS011;15314;49.248;6.968;2023-04-06T05:12:12;17.20;;;14.98;;
27977;SDS011;15314;49.248;6.968;2023-04-06T05:13:12;15.65;;;14.05;;
27977;SDS011;15314;49.248;6.968;2023-04-06T05:14:13;17.90;;;15.18;;
27977;SDS011;15314;49.248;6.968;2023-04-06T05:15:14;16.50;;;14.45;;
27977;SDS011;15314;49.248;6.968;2023-04-06T05:16:15;16.45;;;14.77;;
27977;SDS011;15314;49.248;6.968;2023-04-06T05:17:16;15.57;;;13.98;;
27977;SDS011;15314;49.248;6.968;2023-04-06T05:18:17;16.02;;;14.63;;
27977;SDS011;15314;49.248;6.968;2023-04-06T05:19:18;15.93;;;14.32;;
27977;SDS011;15314;49.248;6.968;2023-04-06T05:20:18;14.90;;;13.52;;
27977;SDS011;15314;49.248;6.968;2023-04-06T05:21:19;16.08;;;14.45;;
27977;SDS011;15314;49.248;6.968;2023-04-06T05:22:20;16.08;;;14.52;;
27977;SDS011;15314;49.248;6.968;2023-04-06T05:23:21;15.55;;;14.15;;
27977;SDS011;15314;49.248;6.968;2023-04-06T05:24:21;15.13;;;13.65;;
27977;SDS011;15314;49.248;6.968;2023-04-06T05:25:25;15.15;;;13.68;;
27977;SDS011;15314;49.248;6.968;2023-04-06T05:26:26;14.32;;;13.02;;
27977;SDS011;15314;49.248;6.968;2023-04-06T05:27:27;15.68;;;14.27;;
27977;SDS011;15314;49.248;6.968;2023-04-06T05:28:28;15.30;;;13.90;;
27977;SDS011;15314;49.248;6.968;2023-04-06T05:29:29;15.88;;;14.27;;
27977;SDS011;15314;49.248;6.968;2023-04-06T05:30:30;16.88;;;14.68;;
27977;SDS011;15314;49.248;6.968;2023-04-06T05:31:31;15.88;;;14.27;;
27977;SDS011;15314;49.248;6.968;2023-04-06T05:32:32;15.13;;;13.73;;
27977;SDS011;15314;49.248;6.968;2023-04-06T05:33:32;14.32;;;12.90;;
27977;SDS011;15314;49.248;6.968;2023-04-06T05:34:33;15.43;;;14.05;;
27977;SDS011;15314;49.248;6.968;2023-04-06T05:35:34;14.52;;;13.30;;
27977;SDS011;15314;49.248;6.968;2023-04-06T05:36:35;15.77;;;14.00;;
27977;SDS011;15314;49.248;6.968;2023-04-06T05:37:36;15.27;;;13.90;;
27977;SDS011;15314;49.248;6.968;2023-04-06T05:38:36;16.77;;;14.55;;
27977;SDS011;15314;49.248;6.968;2023-04-06T05:39:37;15.68;;;14.07;;
27977;SDS011;15314;49.248;6.968;2023-04-06T05:40:38;16.48;;;14.90;;
27977;SDS011;15314;49.248;6.968;2023-04-06T05:41:40;15.57;;;14.30;;
27977;SDS011;15314;49.248;6.968;2023-04-06T05:42:41;14.95;;;13.45;;
27977;SDS011;15314;49.248;6.968;2023-04-06T05:43:42;15.07;;;13.55;;
27977;SDS011;15314;49.248;6.968;2023-04-06T05:44:43;15.45;;;13.98;;
27977;SDS011;15314;49.248;6.968;2023-04-06T05:45:44;14.75;;;13.20;;
27977;SDS011;15314;49.248;6.968;2023-04-06T05:46:45;16.08;;;14.45;;
27977;SDS011;15314;49.248;6.968;2023-04-06T05:47:46;16.17;;;14.55;;
27977;SDS011;15314;49.248;6.968;2023-04-06T05:48:47;16.00;;;14.40;;
27977;SDS011;15314;49.248;6.968;2023-04-06T05:49:47;14.50;;;13.02;;
27977;SDS011;15314;49.248;6.968;2023-04-06T05:50:49;16.10;;;14.73;;
27977;SDS011;15314;49.248;6.968;2023-04-06T05:51:59;16.38;;;14.70;;
27977;SDS011;15314;49.248;6.968;2023-04-06T05:53:00;16.15;;;14.60;;
27977;SDS011;15314;49.248;6.968;2023-04-06T05:54:01;15.95;;;14.55;;
27977;SDS011;15314;49.248;6.968;2023-04-06T05:55:02;16.52;;;14.98;;
27977;SDS011;15314;49.248;6.968;2023-04-06T05:56:03;17.10;;;15.27;;
27977;SDS011;15314;49.248;6.968;2023-04-06T05:57:04;17.92;;;14.63;;